sensor_id;sensor_type;location;lat;lon;timestamp;P1;durP1;ratioP1;P2;durP2;ratioP2
52946;SDS011;68773;40.400;17.260;2023-05-10T00:00:53;24.40;;;14.48;;
52946;SDS011;68773;40.400;17.260;2023-05-10T00:03:19;29.08;;;16.77;;
52946;SDS011;68773;40.400;17.260;2023-05-10T00:05:45;30.35;;;17.70;;
52946;SDS011;68773;40.400;17.260;2023-05-10T00:08:10;29.65;;;16.10;;
52946;SDS011;68773;40.400;17.260;2023-05-10T00:10:36;32.58;;;16.45;;
52946;SDS011;68773;40.400;17.260;2023-05-10T00:13:02;32.10;;;17.55;;
52946;SDS011;68773;40.400;17.260;2023-05-10T00:15:28;29.10;;;16.35;;
52946;SDS011;68773;40.400;17.260;2023-05-10T00:17:55;35.17;;;17.92;;
52946;SDS011;68773;40.400;17.260;2023-05-10T00:20:21;27.67;;;17.10;;
52946;SDS011;68773;40.400;17.260;2023-05-10T00:22:47;31.17;;;17.10;;
52946;SDS011;68773;40.400;17.260;2023-05-10T00:25:13;33.83;;;18.90;;
52946;SDS011;68773;40.400;17.260;2023-05-10T00:27:39;34.30;;;18.00;;
52946;SDS011;68773;40.400;17.260;2023-05-10T00:30:05;28.48;;;16.67;;
52946;SDS011;68773;40.400;17.260;2023-05-10T00:32:31;31.17;;;16.33;;
52946;SDS011;68773;40.400;17.260;2023-05-10T00:34:57;28.98;;;16.05;;
52946;SDS011;68773;40.400;17.260;2023-05-10T00:37:23;26.27;;;15.50;;
52946;SDS011;68773;40.400;17.260;2023-05-10T00:39:49;29.52;;;17.05;;
52946;SDS011;68773;40.400;17.260;2023-05-10T00:42:15;30.52;;;16.75;;
52946;SDS011;68773;40.400;17.260;2023-05-10T00:44:40;29.40;;;17.63;;
52946;SDS011;68773;40.400;17.260;2023-05-10T00:47:06;29.33;;;16.55;;
52946;SDS011;68773;40.400;17.260;2023-05-10T00:49:33;28.13;;;16.02;;
52946;SDS011;68773;40.400;17.260;2023-05-10T00:51:59;27.33;;;15.90;;
52946;SDS011;68773;40.400;17.260;2023-05-10T00:54:26;26.40;;;15.07;;
52946;SDS011;68773;40.400;17.260;2023-05-10T00:56:52;30.23;;;15.85;;
52946;SDS011;68773;40.400;17.260;2023-05-10T00:59:18;32.58;;;16.15;;
52946;SDS011;68773;40.400;17.260;2023-05-10T01:01:45;31.42;;;16.35;;
52946;SDS011;68773;40.400;17.260;2023-05-10T01:04:12;27.20;;;15.27;;
52946;SDS011;68773;40.400;17.260;2023-05-10T01:06:39;25.08;;;15.20;;
52946;SDS011;68773;40.400;17.260;2023-05-10T01:09:05;23.95;;;14.00;;
52946;SDS011;68773;40.400;17.260;2023-05-10T01:11:33;25.65;;;14.48;;
52946;SDS011;68773;40.400;17.260;2023-05-10T01:14:03;22.00;;;13.70;;
52946;SDS011;68773;40.400;17.260;2023-05-10T01:16:32;25.23;;;14.00;;
52946;SDS011;68773;40.400;17.260;2023-05-10T01:19:02;25.27;;;13.48;;
52946;SDS011;68773;40.400;17.260;2023-05-10T01:32:43;23.25;;;14.25;;
52946;SDS011;68773;40.400;17.260;2023-05-10T01:35:35;21.17;;;12.98;;
52946;SDS011;68773;40.400;17.260;2023-05-10T01:49:37;18.52;;;9.73;;
52946;SDS011;68773;40.400;17.260;2023-05-10T01:52:36;20.83;;;9.85;;
52946;SDS011;68773;40.400;17.260;2023-05-10T01:55:11;13.85;;;9.05;;
52946;SDS011;68773;40.400;17.260;2023-05-10T01:57:42;17.10;;;9.57;;
52946;SDS011;68773;40.400;17.260;2023-05-10T02:00:09;18.00;;;10.90;;
52946;SDS011;68773;40.400;17.260;2023-05-10T02:02:37;19.20;;;11.55;;
52946;SDS011;68773;40.400;17.260;2023-05-10T02:05:07;24.27;;;12.82;;
52946;SDS011;68773;40.400;17.260;2023-05-10T02:07:35;21.88;;;13.20;;
52946;SDS011;68773;40.400;17.260;2023-05-10T02:10:02;24.23;;;13.35;;
52946;SDS011;68773;40.400;17.260;2023-05-10T02:12:35;27.23;;;14.00;;
52946;SDS011;68773;40.400;17.260;2023-05-10T02:15:03;30.40;;;15.75;;
52946;SDS011;68773;40.400;17.260;2023-05-10T02:17:31;27.00;;;14.95;;
52946;SDS011;68773;40.400;17.260;2023-05-10T02:19:58;33.15;;;15.93;;
52946;SDS011;68773;40.400;17.260;2023-05-10T02:22:26;32.58;;;15.70;;
52946;SDS011;68773;40.400;17.260;2023-05-10T02:24:53;30.08;;;16.65;;
52946;SDS011;68773;40.400;17.260;2023-05-10T02:27:23;33.90;;;16.50;;
52946;SDS011;68773;40.400;17.260;2023-05-10T02:29:50;35.08;;;17.60;;
52946;SDS011;68773;40.400;17.260;2023-05-10T02:32:17;36.90;;;18.52;;
52946;SDS011;68773;40.400;17.260;2023-05-10T02:34:44;38.78;;;18.05;;
52946;SDS011;68773;40.400;17.260;2023-05-10T02:37:11;35.17;;;17.75;;
52946;SDS011;68773;40.400;17.260;2023-05-10T02:39:39;34.80;;;17.13;;
52946;SDS011;68773;40.400;17.260;2023-05-10T02:42:10;26.23;;;15.05;;
52946;SDS011;68773;40.400;17.260;2023-05-10T02:44:45;26.88;;;14.38;;
52946;SDS011;68773;40.400;17.260;2023-05-10T02:47:12;35.70;;;17.73;;
52946;SDS011;68773;40.400;17.260;2023-05-10T02:49:38;55.85;;;17.35;;
52946;SDS011;68773;40.400;17.260;2023-05-10T02:52:04;35.25;;;14.98;;
52946;SDS011;68773;40.400;17.260;2023-05-10T02:54:37;43.63;;;16.35;;
52946;SDS011;68773;40.400;17.260;2023-05-10T02:57:06;35.83;;;15.55;;
52946;SDS011;68773;40.400;17.260;2023-05-10T02:59:33;48.45;;;17.73;;
52946;SDS011;68773;40.400;17.260;2023-05-10T03:02:00;39.85;;;16.27;;
52946;SDS011;68773;40.400;17.260;2023-05-10T03:04:27;58.53;;;16.63;;
52946;SDS011;68773;40.400;17.260;2023-05-10T03:06:52;35.33;;;13.85;;
52946;SDS011;68773;40.400;17.260;2023-05-10T03:09:18;50.97;;;16.85;;
52946;SDS011;68773;40.400;17.260;2023-05-10T03:17:55;40.45;;;16.33;;
52946;SDS011;68773;40.400;17.260;2023-05-10T03:20:31;64.03;;;17.23;;
52946;SDS011;68773;40.400;17.260;2023-05-10T03:23:12;41.07;;;15.70;;
52946;SDS011;68773;40.400;17.260;2023-05-10T03:25:46;59.30;;;16.55;;
52946;SDS011;68773;40.400;17.260;2023-05-10T03:28:14;46.83;;;15.43;;
52946;SDS011;68773;40.400;17.260;2023-05-10T03:30:41;35.97;;;14.30;;
52946;SDS011;68773;40.400;17.260;2023-05-10T03:33:08;31.98;;;13.50;;
52946;SDS011;68773;40.400;17.260;2023-05-10T03:35:34;51.15;;;15.30;;
52946;SDS011;68773;40.400;17.260;2023-05-10T03:38:00;51.08;;;14.68;;
52946;SDS011;68773;40.400;17.260;2023-05-10T03:40:26;47.33;;;13.07;;
52946;SDS011;68773;40.400;17.260;2023-05-10T03:42:57;47.75;;;13.13;;
52946;SDS011;68773;40.400;17.260;2023-05-10T03:45:23;31.38;;;12.05;;
52946;SDS011;68773;40.400;17.260;2023-05-10T03:47:49;35.28;;;12.40;;
52946;SDS011;68773;40.400;17.260;2023-05-10T03:50:15;45.28;;;13.18;;
52946;SDS011;68773;40.400;17.260;2023-05-10T03:52:41;43.60;;;12.77;;
52946;SDS011;68773;40.400;17.260;2023-05-10T03:55:06;53.20;;;12.73;;
52946;SDS011;68773;40.400;17.260;2023-05-10T03:57:33;21.08;;;10.75;;
52946;SDS011;68773;40.400;17.260;2023-05-10T03:59:59;26.70;;;11.75;;
52946;SDS011;68773;40.400;17.260;2023-05-10T04:02:25;22.42;;;11.70;;
52946;SDS011;68773;40.400;17.260;2023-05-10T04:04:51;29.73;;;12.35;;
52946;SDS011;68773;40.400;17.260;2023-05-10T04:07:16;30.00;;;12.25;;
52946;SDS011;68773;40.400;17.260;2023-05-10T04:09:43;24.33;;;11.68;;
52946;SDS011;68773;40.400;17.260;2023-05-10T04:12:08;24.73;;;11.50;;
52946;SDS011;68773;40.400;17.260;2023-05-10T04:14:34;30.05;;;11.35;;
52946;SDS011;68773;40.400;17.260;2023-05-10T04:17:00;24.85;;;11.93;;
52946;SDS011;68773;40.400;17.260;2023-05-10T04:19:32;23.17;;;11.77;;
52946;SDS011;68773;40.400;17.260;2023-05-10T04:21:58;21.40;;;11.30;;
52946;SDS011;68773;40.400;17.260;2023-05-10T04:24:24;23.40;;;11.00;;
52946;SDS011;68773;40.400;17.260;2023-05-10T04:26:50;21.40;;;11.88;;
52946;SDS011;68773;40.400;17.260;2023-05-10T04:29:16;21.55;;;11.25;;
52946;SDS011;68773;40.400;17.260;2023-05-10T04:31:41;21.83;;;12.30;;
52946;SDS011;68773;40.400;17.260;2023-05-10T04:34:07;25.27;;;11.98;;
52946;SDS011;68773;40.400;17.260;2023-05-10T04:36:33;21.83;;;11.80;;
52946;SDS011;68773;40.400;17.260;2023-05-10T04:39:01;22.50;;;11.40;;
52946;SDS011;68773;40.400;17.260;2023-05-10T04:41:30;18.95;;;11.13;;
52946;SDS011;68773;40.400;17.260;2023-05-10T04:43:56;21.10;;;11.52;;
52946;SDS011;68773;40.400;17.260;2023-05-10T04:46:21;21.88;;;11.60;;
52946;SDS011;68773;40.400;17.260;2023-05-10T04:48:47;21.63;;;13.07;;
52946;SDS011;68773;40.400;17.260;2023-05-10T04:51:13;19.55;;;11.85;;
52946;SDS011;68773;40.400;17.260;2023-05-10T04:53:38;21.75;;;12.85;;
52946;SDS011;68773;40.400;17.260;2023-05-10T04:56:04;27.92;;;13.93;;
52946;SDS011;68773;40.400;17.260;2023-05-10T04:58:30;23.40;;;12.70;;
52946;SDS011;68773;40.400;17.260;2023-05-10T05:00:56;22.05;;;12.80;;
52946;SDS011;68773;40.400;17.260;2023-05-10T05:03:22;20.05;;;11.00;;
52946;SDS011;68773;40.400;17.260;2023-05-10T05:05:48;21.35;;;12.40;;
52946;SDS011;68773;40.400;17.260;2023-05-10T05:08:13;21.70;;;11.65;;
52946;SDS011;68773;40.400;17.260;2023-05-10T05:10:39;23.08;;;13.65;;
52946;SDS011;68773;40.400;17.260;2023-05-10T05:13:05;20.00;;;11.70;;
52946;SDS011;68773;40.400;17.260;2023-05-10T05:15:31;24.90;;;13.52;;
52946;SDS011;68773;40.400;17.260;2023-05-10T05:17:56;26.40;;;13.23;;
52946;SDS011;68773;40.400;17.260;2023-05-10T05:20:22;23.75;;;12.50;;
52946;SDS011;68773;40.400;17.260;2023-05-10T05:22:48;22.63;;;13.05;;
52946;SDS011;68773;40.400;17.260;2023-05-10T05:25:14;20.90;;;11.75;;
52946;SDS011;68773;40.400;17.260;2023-05-10T05:27:40;21.65;;;11.88;;
52946;SDS011;68773;40.400;17.260;2023-05-10T05:30:06;24.42;;;11.73;;
52946;SDS011;68773;40.400;17.260;2023-05-10T05:32:33;21.02;;;11.23;;
52946;SDS011;68773;40.400;17.260;2023-05-10T05:34:58;23.25;;;11.40;;
52946;SDS011;68773;40.400;17.260;2023-05-10T05:37:24;26.80;;;12.25;;
52946;SDS011;68773;40.400;17.260;2023-05-10T05:39:50;25.73;;;12.68;;
52946;SDS011;68773;40.400;17.260;2023-05-10T05:42:16;27.45;;;13.10;;
52946;SDS011;68773;40.400;17.260;2023-05-10T05:44:43;27.20;;;14.50;;
52946;SDS011;68773;40.400;17.260;2023-05-10T05:47:09;26.05;;;12.13;;
52946;SDS011;68773;40.400;17.260;2023-05-10T05:49:35;25.42;;;13.25;;
52946;SDS011;68773;40.400;17.260;2023-05-10T05:52:01;25.77;;;13.27;;
52946;SDS011;68773;40.400;17.260;2023-05-10T05:54:28;31.98;;;14.68;;
52946;SDS011;68773;40.400;17.260;2023-05-10T05:56:55;29.20;;;14.88;;
52946;SDS011;68773;40.400;17.260;2023-05-10T05:59:21;27.27;;;14.05;;
52946;SDS011;68773;40.400;17.260;2023-05-10T06:01:47;26.98;;;14.38;;
52946;SDS011;68773;40.400;17.260;2023-05-10T06:04:13;21.77;;;13.15;;
52946;SDS011;68773;40.400;17.260;2023-05-10T06:06:39;34.55;;;13.57;;
52946;SDS011;68773;40.400;17.260;2023-05-10T06:09:05;22.10;;;13.18;;
52946;SDS011;68773;40.400;17.260;2023-05-10T06:11:30;25.02;;;13.38;;
52946;SDS011;68773;40.400;17.260;2023-05-10T06:13:59;24.02;;;13.77;;
52946;SDS011;68773;40.400;17.260;2023-05-10T06:16:26;23.45;;;14.98;;
52946;SDS011;68773;40.400;17.260;2023-05-10T06:18:52;21.15;;;13.05;;
52946;SDS011;68773;40.400;17.260;2023-05-10T06:21:18;23.42;;;12.95;;
52946;SDS011;68773;40.400;17.260;2023-05-10T06:23:44;27.13;;;13.25;;
52946;SDS011;68773;40.400;17.260;2023-05-10T06:26:10;21.40;;;12.65;;
52946;SDS011;68773;40.400;17.260;2023-05-10T06:28:36;23.23;;;13.32;;
52946;SDS011;68773;40.400;17.260;2023-05-10T06:31:04;21.73;;;12.18;;
52946;SDS011;68773;40.400;17.260;2023-05-10T06:33:30;22.25;;;12.70;;
52946;SDS011;68773;40.400;17.260;2023-05-10T06:35:56;18.63;;;11.15;;
52946;SDS011;68773;40.400;17.260;2023-05-10T06:38:22;18.20;;;11.73;;
52946;SDS011;68773;40.400;17.260;2023-05-10T06:40:48;16.02;;;9.55;;
52946;SDS011;68773;40.400;17.260;2023-05-10T06:43:14;16.45;;;10.10;;
52946;SDS011;68773;40.400;17.260;2023-05-10T06:45:39;15.23;;;9.68;;
52946;SDS011;68773;40.400;17.260;2023-05-10T06:48:06;17.05;;;8.68;;
52946;SDS011;68773;40.400;17.260;2023-05-10T06:50:32;12.52;;;8.07;;
52946;SDS011;68773;40.400;17.260;2023-05-10T06:52:58;14.02;;;7.95;;
52946;SDS011;68773;40.400;17.260;2023-05-10T06:55:24;15.05;;;8.68;;
52946;SDS011;68773;40.400;17.260;2023-05-10T06:57:50;10.95;;;7.18;;
52946;SDS011;68773;40.400;17.260;2023-05-10T07:00:16;10.20;;;7.10;;
52946;SDS011;68773;40.400;17.260;2023-05-10T07:02:43;12.18;;;7.60;;
52946;SDS011;68773;40.400;17.260;2023-05-10T07:05:09;12.77;;;7.07;;
52946;SDS011;68773;40.400;17.260;2023-05-10T07:07:35;12.15;;;6.60;;
52946;SDS011;68773;40.400;17.260;2023-05-10T07:10:01;11.20;;;7.25;;
52946;SDS011;68773;40.400;17.260;2023-05-10T07:12:27;10.95;;;7.05;;
52946;SDS011;68773;40.400;17.260;2023-05-10T07:14:53;9.23;;;6.50;;
52946;SDS011;68773;40.400;17.260;2023-05-10T07:17:19;13.05;;;7.28;;
52946;SDS011;68773;40.400;17.260;2023-05-10T07:19:44;12.02;;;7.32;;
52946;SDS011;68773;40.400;17.260;2023-05-10T07:22:10;10.77;;;7.00;;
52946;SDS011;68773;40.400;17.260;2023-05-10T07:24:36;10.40;;;6.88;;
52946;SDS011;68773;40.400;17.260;2023-05-10T07:27:02;12.20;;;6.95;;
52946;SDS011;68773;40.400;17.260;2023-05-10T07:29:28;10.75;;;6.15;;
52946;SDS011;68773;40.400;17.260;2023-05-10T07:31:54;11.07;;;7.00;;
52946;SDS011;68773;40.400;17.260;2023-05-10T07:34:20;12.88;;;6.25;;
52946;SDS011;68773;40.400;17.260;2023-05-10T07:36:46;8.45;;;6.50;;
52946;SDS011;68773;40.400;17.260;2023-05-10T07:39:11;11.20;;;6.18;;
52946;SDS011;68773;40.400;17.260;2023-05-10T07:41:37;8.75;;;5.78;;
52946;SDS011;68773;40.400;17.260;2023-05-10T07:44:03;9.73;;;5.82;;
52946;SDS011;68773;40.400;17.260;2023-05-10T07:46:30;11.32;;;6.00;;
52946;SDS011;68773;40.400;17.260;2023-05-10T07:48:55;8.65;;;5.25;;
52946;SDS011;68773;40.400;17.260;2023-05-10T07:51:21;8.27;;;5.32;;
52946;SDS011;68773;40.400;17.260;2023-05-10T07:53:47;9.30;;;4.65;;
52946;SDS011;68773;40.400;17.260;2023-05-10T07:56:23;6.22;;;4.63;;
52946;SDS011;68773;40.400;17.260;2023-05-10T07:58:52;6.80;;;4.28;;
52946;SDS011;68773;40.400;17.260;2023-05-10T08:01:19;6.32;;;4.15;;
52946;SDS011;68773;40.400;17.260;2023-05-10T08:03:45;6.75;;;4.13;;
52946;SDS011;68773;40.400;17.260;2023-05-10T08:06:11;7.88;;;4.40;;
52946;SDS011;68773;40.400;17.260;2023-05-10T08:08:37;8.50;;;3.90;;
52946;SDS011;68773;40.400;17.260;2023-05-10T08:11:03;6.03;;;3.58;;
52946;SDS011;68773;40.400;17.260;2023-05-10T08:13:29;7.93;;;4.20;;
52946;SDS011;68773;40.400;17.260;2023-05-10T08:15:56;7.47;;;3.58;;
52946;SDS011;68773;40.400;17.260;2023-05-10T08:18:22;7.00;;;3.85;;
52946;SDS011;68773;40.400;17.260;2023-05-10T08:20:48;10.90;;;3.92;;
52946;SDS011;68773;40.400;17.260;2023-05-10T08:23:13;6.30;;;3.88;;
52946;SDS011;68773;40.400;17.260;2023-05-10T08:25:39;6.22;;;3.80;;
52946;SDS011;68773;40.400;17.260;2023-05-10T08:28:05;5.82;;;3.70;;
52946;SDS011;68773;40.400;17.260;2023-05-10T08:30:31;5.05;;;3.22;;
52946;SDS011;68773;40.400;17.260;2023-05-10T08:32:57;6.60;;;3.75;;
52946;SDS011;68773;40.400;17.260;2023-05-10T08:35:22;5.45;;;3.65;;
52946;SDS011;68773;40.400;17.260;2023-05-10T08:37:49;6.35;;;3.65;;
52946;SDS011;68773;40.400;17.260;2023-05-10T08:40:16;5.13;;;3.60;;
52946;SDS011;68773;40.400;17.260;2023-05-10T08:42:45;6.60;;;3.45;;
52946;SDS011;68773;40.400;17.260;2023-05-10T08:45:16;6.10;;;3.33;;
52946;SDS011;68773;40.400;17.260;2023-05-10T08:47:44;6.35;;;3.60;;
52946;SDS011;68773;40.400;17.260;2023-05-10T08:50:11;5.10;;;3.65;;
52946;SDS011;68773;40.400;17.260;2023-05-10T08:52:37;4.38;;;3.10;;
52946;SDS011;68773;40.400;17.260;2023-05-10T08:55:05;6.82;;;3.00;;
52946;SDS011;68773;40.400;17.260;2023-05-10T08:57:31;6.03;;;3.40;;
52946;SDS011;68773;40.400;17.260;2023-05-10T08:59:57;5.60;;;3.67;;
52946;SDS011;68773;40.400;17.260;2023-05-10T09:02:25;5.93;;;3.25;;
52946;SDS011;68773;40.400;17.260;2023-05-10T09:04:52;4.35;;;3.22;;
52946;SDS011;68773;40.400;17.260;2023-05-10T09:07:18;5.72;;;3.33;;
52946;SDS011;68773;40.400;17.260;2023-05-10T09:09:45;4.93;;;3.60;;
52946;SDS011;68773;40.400;17.260;2023-05-10T09:12:11;7.45;;;3.90;;
52946;SDS011;68773;40.400;17.260;2023-05-10T09:14:40;4.55;;;3.67;;
52946;SDS011;68773;40.400;17.260;2023-05-10T09:17:07;6.20;;;3.78;;
52946;SDS011;68773;40.400;17.260;2023-05-10T09:19:34;8.55;;;4.15;;
52946;SDS011;68773;40.400;17.260;2023-05-10T09:22:00;6.40;;;4.13;;
52946;SDS011;68773;40.400;17.260;2023-05-10T09:24:27;9.27;;;6.25;;
52946;SDS011;68773;40.400;17.260;2023-05-10T09:26:54;8.55;;;5.50;;
52946;SDS011;68773;40.400;17.260;2023-05-10T09:29:23;8.80;;;5.57;;
52946;SDS011;68773;40.400;17.260;2023-05-10T09:31:49;8.65;;;5.35;;
52946;SDS011;68773;40.400;17.260;2023-05-10T09:34:17;9.88;;;5.40;;
52946;SDS011;68773;40.400;17.260;2023-05-10T09:36:56;8.77;;;5.07;;
52946;SDS011;68773;40.400;17.260;2023-05-10T09:39:35;10.18;;;5.97;;
52946;SDS011;68773;40.400;17.260;2023-05-10T09:44:32;8.18;;;5.30;;
52946;SDS011;68773;40.400;17.260;2023-05-10T09:46:59;9.80;;;6.20;;
52946;SDS011;68773;40.400;17.260;2023-05-10T09:49:26;10.70;;;6.35;;
52946;SDS011;68773;40.400;17.260;2023-05-10T09:52:04;9.55;;;5.90;;
52946;SDS011;68773;40.400;17.260;2023-05-10T09:54:31;10.13;;;6.38;;
52946;SDS011;68773;40.400;17.260;2023-05-10T09:56:58;9.15;;;6.30;;
52946;SDS011;68773;40.400;17.260;2023-05-10T09:59:25;10.80;;;5.85;;
52946;SDS011;68773;40.400;17.260;2023-05-10T10:01:53;8.88;;;6.32;;
52946;SDS011;68773;40.400;17.260;2023-05-10T10:04:25;9.95;;;5.93;;
52946;SDS011;68773;40.400;17.260;2023-05-10T10:06:58;11.98;;;6.55;;
52946;SDS011;68773;40.400;17.260;2023-05-10T10:09:28;8.32;;;5.90;;
52946;SDS011;68773;40.400;17.260;2023-05-10T10:11:54;11.60;;;5.53;;
52946;SDS011;68773;40.400;17.260;2023-05-10T10:14:21;7.25;;;5.22;;
52946;SDS011;68773;40.400;17.260;2023-05-10T10:16:49;9.35;;;5.60;;
52946;SDS011;68773;40.400;17.260;2023-05-10T10:19:16;10.95;;;5.78;;
52946;SDS011;68773;40.400;17.260;2023-05-10T10:21:43;8.07;;;5.53;;
52946;SDS011;68773;40.400;17.260;2023-05-10T10:24:09;9.13;;;5.20;;
52946;SDS011;68773;40.400;17.260;2023-05-10T10:26:35;8.63;;;5.57;;
52946;SDS011;68773;40.400;17.260;2023-05-10T10:36:53;9.52;;;5.43;;
52946;SDS011;68773;40.400;17.260;2023-05-10T10:39:20;9.07;;;5.72;;
52946;SDS011;68773;40.400;17.260;2023-05-10T10:41:50;8.27;;;5.10;;
52946;SDS011;68773;40.400;17.260;2023-05-10T10:54:51;10.50;;;5.43;;
52946;SDS011;68773;40.400;17.260;2023-05-10T10:57:18;8.35;;;5.88;;
52946;SDS011;68773;40.400;17.260;2023-05-10T10:59:46;13.60;;;5.90;;
52946;SDS011;68773;40.400;17.260;2023-05-10T11:04:58;11.82;;;5.38;;
52946;SDS011;68773;40.400;17.260;2023-05-10T11:07:24;11.10;;;5.70;;
52946;SDS011;68773;40.400;17.260;2023-05-10T11:09:50;10.98;;;6.53;;
52946;SDS011;68773;40.400;17.260;2023-05-10T11:12:16;10.65;;;6.63;;
52946;SDS011;68773;40.400;17.260;2023-05-10T11:14:42;11.07;;;6.70;;
52946;SDS011;68773;40.400;17.260;2023-05-10T11:17:26;11.90;;;7.57;;
52946;SDS011;68773;40.400;17.260;2023-05-10T11:20:06;11.40;;;6.90;;
52946;SDS011;68773;40.400;17.260;2023-05-10T11:22:54;12.88;;;7.43;;
52946;SDS011;68773;40.400;17.260;2023-05-10T11:25:23;12.38;;;7.03;;
52946;SDS011;68773;40.400;17.260;2023-05-10T11:27:51;10.23;;;6.53;;
52946;SDS011;68773;40.400;17.260;2023-05-10T11:30:17;12.05;;;6.80;;
52946;SDS011;68773;40.400;17.260;2023-05-10T11:32:43;11.15;;;6.70;;
52946;SDS011;68773;40.400;17.260;2023-05-10T11:35:10;11.50;;;6.25;;
52946;SDS011;68773;40.400;17.260;2023-05-10T11:37:37;9.70;;;5.57;;
52946;SDS011;68773;40.400;17.260;2023-05-10T11:40:08;9.95;;;5.80;;
52946;SDS011;68773;40.400;17.260;2023-05-10T11:42:38;9.85;;;5.65;;
52946;SDS011;68773;40.400;17.260;2023-05-10T11:45:04;7.38;;;5.25;;
52946;SDS011;68773;40.400;17.260;2023-05-10T11:47:30;13.65;;;4.90;;
52946;SDS011;68773;40.400;17.260;2023-05-10T11:49:56;9.27;;;4.93;;
52946;SDS011;68773;40.400;17.260;2023-05-10T11:52:23;10.77;;;4.75;;
52946;SDS011;68773;40.400;17.260;2023-05-10T11:54:52;6.63;;;4.30;;
52946;SDS011;68773;40.400;17.260;2023-05-10T11:57:19;10.00;;;4.88;;
52946;SDS011;68773;40.400;17.260;2023-05-10T11:59:46;8.43;;;5.07;;
52946;SDS011;68773;40.400;17.260;2023-05-10T12:02:14;8.95;;;5.25;;
52946;SDS011;68773;40.400;17.260;2023-05-10T12:04:40;13.02;;;5.70;;
52946;SDS011;68773;40.400;17.260;2023-05-10T12:07:07;9.55;;;5.43;;
52946;SDS011;68773;40.400;17.260;2023-05-10T12:09:32;11.88;;;5.43;;
52946;SDS011;68773;40.400;17.260;2023-05-10T12:11:58;9.50;;;4.82;;
52946;SDS011;68773;40.400;17.260;2023-05-10T12:14:24;7.70;;;5.28;;
52946;SDS011;68773;40.400;17.260;2023-05-10T12:16:50;13.68;;;5.72;;
52946;SDS011;68773;40.400;17.260;2023-05-10T12:19:19;11.93;;;5.68;;
52946;SDS011;68773;40.400;17.260;2023-05-10T12:21:46;13.95;;;6.28;;
52946;SDS011;68773;40.400;17.260;2023-05-10T12:24:12;13.75;;;6.15;;
52946;SDS011;68773;40.400;17.260;2023-05-10T12:26:38;12.25;;;6.32;;
52946;SDS011;68773;40.400;17.260;2023-05-10T12:29:19;10.85;;;5.75;;
52946;SDS011;68773;40.400;17.260;2023-05-10T12:31:58;13.27;;;6.18;;
52946;SDS011;68773;40.400;17.260;2023-05-10T12:34:31;11.30;;;5.90;;
52946;SDS011;68773;40.400;17.260;2023-05-10T12:36:58;13.65;;;6.47;;
52946;SDS011;68773;40.400;17.260;2023-05-10T12:39:24;15.73;;;6.95;;
52946;SDS011;68773;40.400;17.260;2023-05-10T12:41:51;17.55;;;6.53;;
52946;SDS011;68773;40.400;17.260;2023-05-10T12:44:17;12.65;;;4.90;;
52946;SDS011;68773;40.400;17.260;2023-05-10T12:46:43;8.55;;;5.68;;
52946;SDS011;68773;40.400;17.260;2023-05-10T12:49:09;10.68;;;6.15;;
52946;SDS011;68773;40.400;17.260;2023-05-10T12:51:35;11.50;;;5.47;;
52946;SDS011;68773;40.400;17.260;2023-05-10T12:54:02;17.17;;;5.95;;
52946;SDS011;68773;40.400;17.260;2023-05-10T12:56:28;11.13;;;6.20;;
52946;SDS011;68773;40.400;17.260;2023-05-10T12:58:54;13.90;;;5.93;;
52946;SDS011;68773;40.400;17.260;2023-05-10T13:01:19;11.52;;;6.00;;
52946;SDS011;68773;40.400;17.260;2023-05-10T13:03:45;11.50;;;5.00;;
52946;SDS011;68773;40.400;17.260;2023-05-10T13:06:11;12.15;;;5.20;;
52946;SDS011;68773;40.400;17.260;2023-05-10T13:08:38;13.65;;;5.13;;
52946;SDS011;68773;40.400;17.260;2023-05-10T13:11:04;12.05;;;5.95;;
52946;SDS011;68773;40.400;17.260;2023-05-10T13:13:30;12.85;;;5.50;;
52946;SDS011;68773;40.400;17.260;2023-05-10T13:15:56;11.63;;;5.45;;
52946;SDS011;68773;40.400;17.260;2023-05-10T13:18:22;10.50;;;5.25;;
52946;SDS011;68773;40.400;17.260;2023-05-10T13:20:47;11.45;;;5.97;;
52946;SDS011;68773;40.400;17.260;2023-05-10T13:23:14;16.88;;;5.45;;
52946;SDS011;68773;40.400;17.260;2023-05-10T13:25:40;18.17;;;5.93;;
52946;SDS011;68773;40.400;17.260;2023-05-10T13:28:06;13.73;;;5.90;;
52946;SDS011;68773;40.400;17.260;2023-05-10T13:30:31;14.48;;;6.00;;
52946;SDS011;68773;40.400;17.260;2023-05-10T13:32:58;10.27;;;5.22;;
52946;SDS011;68773;40.400;17.260;2023-05-10T13:35:24;11.23;;;5.90;;
52946;SDS011;68773;40.400;17.260;2023-05-10T13:37:50;14.65;;;5.63;;
52946;SDS011;68773;40.400;17.260;2023-05-10T13:40:15;14.57;;;6.10;;
52946;SDS011;68773;40.400;17.260;2023-05-10T13:42:41;15.52;;;6.60;;
52946;SDS011;68773;40.400;17.260;2023-05-10T13:45:07;10.38;;;5.95;;
52946;SDS011;68773;40.400;17.260;2023-05-10T13:47:33;13.63;;;5.65;;
52946;SDS011;68773;40.400;17.260;2023-05-10T13:49:59;15.68;;;6.00;;
52946;SDS011;68773;40.400;17.260;2023-05-10T13:52:26;12.07;;;6.10;;
52946;SDS011;68773;40.400;17.260;2023-05-10T13:54:52;14.13;;;6.25;;
52946;SDS011;68773;40.400;17.260;2023-05-10T13:57:19;12.82;;;6.03;;
52946;SDS011;68773;40.400;17.260;2023-05-10T13:59:46;11.98;;;5.72;;
52946;SDS011;68773;40.400;17.260;2023-05-10T14:02:12;13.15;;;5.97;;
52946;SDS011;68773;40.400;17.260;2023-05-10T14:04:38;12.25;;;5.68;;
52946;SDS011;68773;40.400;17.260;2023-05-10T14:07:04;12.00;;;5.15;;
52946;SDS011;68773;40.400;17.260;2023-05-10T14:09:29;12.65;;;5.82;;
52946;SDS011;68773;40.400;17.260;2023-05-10T14:11:55;15.38;;;6.40;;
52946;SDS011;68773;40.400;17.260;2023-05-10T14:14:24;12.50;;;6.18;;
52946;SDS011;68773;40.400;17.260;2023-05-10T14:17:02;14.15;;;5.65;;
52946;SDS011;68773;40.400;17.260;2023-05-10T14:19:28;20.40;;;5.97;;
52946;SDS011;68773;40.400;17.260;2023-05-10T14:21:57;14.32;;;6.35;;
52946;SDS011;68773;40.400;17.260;2023-05-10T14:24:23;9.27;;;5.47;;
52946;SDS011;68773;40.400;17.260;2023-05-10T14:26:48;13.38;;;5.68;;
52946;SDS011;68773;40.400;17.260;2023-05-10T14:29:18;10.80;;;4.90;;
52946;SDS011;68773;40.400;17.260;2023-05-10T14:31:44;15.07;;;5.78;;
52946;SDS011;68773;40.400;17.260;2023-05-10T14:34:10;11.70;;;5.10;;
52946;SDS011;68773;40.400;17.260;2023-05-10T14:36:36;12.15;;;5.00;;
52946;SDS011;68773;40.400;17.260;2023-05-10T14:39:02;13.98;;;5.25;;
52946;SDS011;68773;40.400;17.260;2023-05-10T14:41:27;9.25;;;4.47;;
52946;SDS011;68773;40.400;17.260;2023-05-10T14:43:55;9.63;;;4.68;;
52946;SDS011;68773;40.400;17.260;2023-05-10T14:46:20;11.90;;;4.78;;
52946;SDS011;68773;40.400;17.260;2023-05-10T14:48:46;8.07;;;4.35;;
52946;SDS011;68773;40.400;17.260;2023-05-10T14:51:12;8.40;;;4.13;;
52946;SDS011;68773;40.400;17.260;2023-05-10T14:53:38;63.45;;;29.73;;
52946;SDS011;68773;40.400;17.260;2023-05-10T14:56:04;93.82;;;33.78;;
52946;SDS011;68773;40.400;17.260;2023-05-10T14:58:30;9.80;;;5.20;;
52946;SDS011;68773;40.400;17.260;2023-05-10T15:00:56;10.75;;;4.28;;
52946;SDS011;68773;40.400;17.260;2023-05-10T15:03:22;11.82;;;4.30;;
52946;SDS011;68773;40.400;17.260;2023-05-10T15:05:47;7.88;;;4.40;;
52946;SDS011;68773;40.400;17.260;2023-05-10T15:08:13;10.70;;;4.38;;
52946;SDS011;68773;40.400;17.260;2023-05-10T15:10:39;10.63;;;4.30;;